Time;durP1;ratioP1;P1;durP2;ratioP2;P2;SDS_P1;SDS_P2;PMS_P1;PMS_P2;Temp;Humidity;BMP_temperature;BMP_pressure;BME280_temperature;BME280_humidity;BME280_pressure;Samples;Min_cycle;Max_cycle;Signal;HPM_P1;HPM_P2
2022/05/04 00:02:22;;;;;;;3.03;1.85;;;13.20;81.90;;;;;;5049985;28;20025;-84
2022/05/04 00:04:47;;;;;;;3.63;1.88;;;13.20;82.20;;;;;;5043226;28;20021;-83
2022/05/04 00:07:13;;;;;;;2.78;2.10;;;13.20;82.60;;;;;;5065184;28;20027;-85
2022/05/04 00:09:38;;;;;;;2.75;1.63;;;13.20;82.60;;;;;;5042075;28;20065;-83
2022/05/04 00:12:04;;;;;;;1.75;1.63;;;13.10;82.70;;;;;;5052762;28;20030;-83
2022/05/04 00:14:30;;;;;;;1.60;1.40;;;13.10;82.60;;;;;;5044242;28;20025;-82
2022/05/04 00:16:55;;;;;;;3.42;2.20;;;13.10;82.70;;;;;;5067480;28;20039;-83
2022/05/04 00:19:21;;;;;;;2.28;1.63;;;13.10;83.50;;;;;;5063546;28;20027;-83
2022/05/04 00:21:46;;;;;;;8.50;2.13;;;13.00;83.80;;;;;;5064999;28;20080;-83
2022/05/04 00:24:12;;;;;;;2.42;2.05;;;13.00;84.10;;;;;;5060464;28;20033;-84
2022/05/04 00:26:37;;;;;;;2.10;1.70;;;12.90;84.10;;;;;;5041679;28;20029;-86
2022/05/04 00:29:03;;;;;;;8.75;2.25;;;12.90;84.10;;;;;;5059334;28;20030;-85
2022/05/04 00:31:28;;;;;;;3.55;2.00;;;12.80;83.90;;;;;;5041242;28;20028;-83
2022/05/04 00:33:54;;;;;;;2.55;2.35;;;12.80;84.20;;;;;;5058415;28;20056;-85
2022/05/04 00:36:19;;;;;;;2.22;1.60;;;12.80;84.60;;;;;;5045324;28;20040;-84
2022/05/04 00:38:45;;;;;;;2.88;2.28;;;12.70;84.90;;;;;;5051451;28;20029;-85
2022/05/04 00:41:10;;;;;;;3.58;2.05;;;12.60;85.10;;;;;;5041648;28;20081;-86
2022/05/04 00:43:36;;;;;;;3.30;2.05;;;12.60;85.30;;;;;;5052197;28;20068;-84
2022/05/04 00:46:01;;;;;;;3.28;2.35;;;12.50;85.40;;;;;;5046257;28;20033;-84
2022/05/04 00:48:27;;;;;;;2.00;1.50;;;12.50;85.70;;;;;;5048529;28;20025;-84
2022/05/04 00:50:53;;;;;;;3.22;2.47;;;12.50;86.10;;;;;;5037957;28;20032;-85
2022/05/04 00:53:20;;;;;;;2.97;2.20;;;12.50;86.30;;;;;;5047142;28;21286;-83
2022/05/04 00:55:46;;;;;;;2.95;2.28;;;12.40;86.40;;;;;;5041116;28;20025;-84
2022/05/04 01:01:00;;;;;;;2.38;2.17;;;12.40;87.10;;;;;;5042498;28;20134;-83
2022/05/04 01:03:25;;;;;;;2.80;2.13;;;12.30;87.50;;;;;;5036691;28;20162;-83
2022/05/04 01:05:51;;;;;;;2.72;2.15;;;12.30;87.90;;;;;;5049312;28;20112;-83
2022/05/04 01:08:17;;;;;;;2.60;2.33;;;12.30;88.20;;;;;;5055053;28;20075;-83
2022/05/04 01:10:42;;;;;;;2.30;1.73;;;12.20;88.50;;;;;;5066148;28;20666;-84
2022/05/04 01:13:08;;;;;;;2.83;2.42;;;12.20;88.60;;;;;;5045159;28;20107;-85
2022/05/04 01:15:34;;;;;;;3.80;2.30;;;12.20;88.70;;;;;;5048238;28;20037;-83
2022/05/04 01:18:00;;;;;;;2.15;1.60;;;12.10;88.80;;;;;;5051650;28;20044;-83
2022/05/04 01:20:25;;;;;;;2.60;2.28;;;12.10;89.00;;;;;;5041768;28;20112;-83
2022/05/04 01:22:51;;;;;;;3.00;2.53;;;12.00;89.30;;;;;;5038104;28;20029;-85
2022/05/04 01:25:16;;;;;;;3.15;2.30;;;12.00;89.70;;;;;;5050236;28;20033;-83
2022/05/04 01:27:42;;;;;;;3.10;2.20;;;12.00;90.00;;;;;;5045276;28;20056;-85
2022/05/04 01:30:08;;;;;;;2.15;1.80;;;12.00;90.20;;;;;;5041305;28;20428;-85
2022/05/04 01:32:34;;;;;;;5.15;3.42;;;11.90;90.30;;;;;;5042858;28;21707;-84
2022/05/04 01:34:59;;;;;;;3.10;2.22;;;11.90;90.50;;;;;;5028622;28;20152;-83
2022/05/04 01:37:25;;;;;;;3.58;2.45;;;11.90;90.70;;;;;;5031924;28;20127;-84
2022/05/04 01:39:51;;;;;;;3.40;2.05;;;11.80;90.80;;;;;;5054370;28;20028;-84
2022/05/04 01:42:16;;;;;;;4.03;2.40;;;11.90;91.00;;;;;;5045261;28;20033;-84
2022/05/04 01:44:46;;;;;;;3.22;1.88;;;11.80;91.10;;;;;;5051953;28;20032;-84
2022/05/04 01:47:12;;;;;;;5.85;2.78;;;11.80;91.20;;;;;;5050293;28;20034;-85
2022/05/04 01:49:38;;;;;;;2.90;2.30;;;11.70;91.30;;;;;;5042143;28;20028;-83
2022/05/04 01:52:04;;;;;;;3.42;2.50;;;11.70;91.40;;;;;;5041536;28;20059;-85
2022/05/04 01:54:29;;;;;;;4.10;2.65;;;11.70;91.60;;;;;;5049025;28;20475;-84
2022/05/04 01:56:55;;;;;;;3.60;2.63;;;11.60;91.70;;;;;;5036482;28;20029;-83
2022/05/04 01:59:21;;;;;;;6.05;2.47;;;11.60;91.90;;;;;;5052141;28;20024;-85
2022/05/04 02:01:47;;;;;;;6.45;2.78;;;11.60;92.00;;;;;;5048611;28;20034;-83
2022/05/04 02:04:12;;;;;;;5.50;2.95;;;11.50;92.20;;;;;;5036179;28;20381;-85
2022/05/04 02:06:38;;;;;;;4.15;2.95;;;11.50;92.20;;;;;;5040376;28;20043;-84
2022/05/04 02:09:04;;;;;;;5.63;3.35;;;11.50;92.40;;;;;;5036035;28;20052;-84
2022/05/04 02:11:32;;;;;;;3.92;3.00;;;11.40;92.60;;;;;;5055976;28;20027;-83
2022/05/04 02:13:59;;;;;;;3.97;3.58;;;11.40;92.90;;;;;;5042439;28;20064;-82
2022/05/04 02:16:24;;;;;;;3.83;2.90;;;11.30;93.00;;;;;;5063109;28;20051;-83
2022/05/04 02:18:49;;;;;;;4.15;3.28;;;11.30;93.00;;;;;;5045264;28;20469;-83
2022/05/04 02:21:16;;;;;;;3.22;2.88;;;11.30;93.10;;;;;;5053415;28;20064;-83
2022/05/04 02:23:42;;;;;;;4.20;3.22;;;11.30;93.10;;;;;;5038647;28;20028;-84
2022/05/04 02:26:07;;;;;;;5.88;3.10;;;11.30;93.20;;;;;;5045235;28;20030;-86
2022/05/04 02:28:33;;;;;;;3.58;2.72;;;11.30;93.20;;;;;;5051360;28;20457;-83
2022/05/04 02:30:59;;;;;;;7.38;3.22;;;11.20;93.30;;;;;;5044493;28;20039;-83
2022/05/04 02:33:24;;;;;;;4.35;3.10;;;11.20;93.40;;;;;;5044815;28;20523;-83
2022/05/04 02:38:34;;;;;;;6.25;3.50;;;11.20;93.60;;;;;;5052833;28;20087;-84
2022/05/04 02:40:59;;;;;;;4.40;3.65;;;11.20;93.70;;;;;;5043416;28;20033;-82
2022/05/04 02:43:26;;;;;;;5.40;3.08;;;11.20;93.90;;;;;;5047810;28;20096;-84
2022/05/04 02:45:52;;;;;;;8.23;3.30;;;11.10;93.80;;;;;;5055159;28;20016;-84
2022/05/04 02:48:17;;;;;;;4.60;3.35;;;11.10;93.90;;;;;;5045019;28;20022;-83
2022/05/04 02:50:43;;;;;;;6.10;3.75;;;11.10;94.10;;;;;;5043503;28;20457;-84
2022/05/04 02:53:09;;;;;;;5.95;4.00;;;11.10;94.20;;;;;;5049514;28;20033;-83
2022/05/04 02:55:34;;;;;;;3.88;3.30;;;11.00;94.30;;;;;;5043970;28;20454;-83
2022/05/04 02:58:00;;;;;;;4.13;3.08;;;11.00;94.30;;;;;;5034106;28;20021;-84
2022/05/04 03:00:27;;;;;;;4.35;3.38;;;10.90;94.30;;;;;;5035937;28;20033;-82
2022/05/04 03:02:54;;;;;;;4.63;3.78;;;10.90;94.40;;;;;;5044276;28;20366;-83
2022/05/04 03:05:20;;;;;;;5.72;3.35;;;10.80;94.50;;;;;;5052872;28;20017;-83
2022/05/04 03:07:46;;;;;;;6.07;3.97;;;10.80;94.60;;;;;;5056379;28;20037;-83
2022/05/04 03:10:13;;;;;;;4.90;3.65;;;10.80;94.70;;;;;;5060679;28;20039;-85
2022/05/04 03:12:40;;;;;;;4.15;3.30;;;10.70;94.80;;;;;;5069437;28;20045;-84
2022/05/04 03:15:06;;;;;;;5.93;3.95;;;10.70;94.90;;;;;;5055107;28;20089;-85
2022/05/04 03:17:32;;;;;;;4.43;3.35;;;10.70;95.00;;;;;;5055778;28;20028;-83
2022/05/04 03:19:59;;;;;;;8.48;3.70;;;10.60;95.10;;;;;;5054476;28;20045;-82
2022/05/04 03:22:25;;;;;;;6.88;3.90;;;10.60;95.30;;;;;;5048704;28;20172;-83
2022/05/04 03:24:51;;;;;;;4.78;4.25;;;10.60;95.40;;;;;;5058294;28;20029;-83
2022/05/04 03:27:16;;;;;;;5.47;3.88;;;10.60;95.40;;;;;;5050294;28;20481;-84
2022/05/04 03:29:43;;;;;;;5.15;4.40;;;10.60;95.50;;;;;;5039320;28;20120;-83
2022/05/04 03:32:08;;;;;;;5.68;4.22;;;10.60;95.40;;;;;;5041725;28;20022;-84
2022/05/04 03:34:34;;;;;;;4.18;3.53;;;10.60;95.40;;;;;;5043120;28;20108;-83
2022/05/04 03:37:00;;;;;;;4.20;3.80;;;10.60;95.40;;;;;;5042891;28;20450;-83
2022/05/04 03:39:27;;;;;;;5.60;4.07;;;10.60;95.50;;;;;;5055999;28;20110;-83
2022/05/04 03:41:52;;;;;;;5.05;3.65;;;10.50;95.50;;;;;;5033857;28;20119;-84
2022/05/04 03:44:18;;;;;;;6.63;4.15;;;10.60;95.60;;;;;;5042768;28;20040;-83
2022/05/04 03:46:51;;;;;;;4.93;4.05;;;10.50;95.50;;;;;;5032534;28;20091;-83
2022/05/04 03:49:18;;;;;;;6.15;4.47;;;10.50;95.60;;;;;;5048856;28;20031;-82
2022/05/04 03:51:44;;;;;;;5.60;4.57;;;10.50;95.70;;;;;;5042754;28;20032;-82
2022/05/04 03:54:10;;;;;;;5.32;3.60;;;10.50;95.80;;;;;;5036453;28;20029;-83
2022/05/04 03:56:37;;;;;;;6.20;4.55;;;10.50;95.80;;;;;;5032719;28;20031;-83
2022/05/04 03:59:04;;;;;;;7.78;4.40;;;10.50;96.00;;;;;;5040008;28;20041;-84
2022/05/04 04:01:30;;;;;;;5.72;4.40;;;10.60;95.90;;;;;;5032142;28;20038;-83
2022/05/04 04:03:56;;;;;;;5.00;4.00;;;10.60;95.90;;;;;;5032801;28;20059;-84
2022/05/04 04:06:21;;;;;;;7.07;5.40;;;10.60;95.90;;;;;;5031764;28;20465;-83
2022/05/04 04:08:50;;;;;;;4.43;3.50;;;10.70;95.90;;;;;;5044309;28;20052;-83
2022/05/04 04:11:17;;;;;;;7.10;4.45;;;10.70;95.80;;;;;;5057488;28;20457;-82
2022/05/04 04:13:43;;;;;;;6.78;4.47;;;10.80;95.80;;;;;;5041789;28;20456;-82
2022/05/04 04:16:08;;;;;;;7.22;4.38;;;10.80;95.70;;;;;;5032497;28;20488;-83
2022/05/04 04:18:34;;;;;;;9.57;4.00;;;10.80;95.60;;;;;;5038508;28;20047;-84
2022/05/04 04:23:43;;;;;;;6.80;4.68;;;10.90;95.70;;;;;;5033409;28;20031;-84
2022/05/04 04:26:10;;;;;;;9.25;4.82;;;10.90;95.70;;;;;;5034401;28;20129;-83
2022/05/04 04:28:38;;;;;;;5.05;4.50;;;11.00;95.70;;;;;;5032187;28;20021;-83
2022/05/04 04:31:04;;;;;;;4.97;4.20;;;11.00;95.50;;;;;;5032416;28;20041;-82
2022/05/04 04:33:29;;;;;;;7.05;4.47;;;11.00;95.40;;;;;;5040164;28;20032;-83
2022/05/04 04:35:59;;;;;;;10.63;5.03;;;11.10;95.30;;;;;;5036430;28;20026;-84
2022/05/04 04:38:26;;;;;;;5.35;4.43;;;11.10;95.20;;;;;;5037792;28;20029;-84
2022/05/04 04:40:51;;;;;;;10.10;4.57;;;11.10;95.00;;;;;;5036825;28;20331;-84
2022/05/04 04:43:18;;;;;;;7.25;4.72;;;11.10;94.90;;;;;;5036211;28;20040;-83
2022/05/04 04:45:44;;;;;;;6.90;4.95;;;11.10;94.80;;;;;;5049377;28;20032;-83
2022/05/04 04:48:10;;;;;;;6.40;4.13;;;11.20;94.80;;;;;;5058496;28;20110;-83
2022/05/04 04:50:35;;;;;;;8.95;4.70;;;11.20;94.70;;;;;;5033245;28;20063;-83
2022/05/04 04:53:01;;;;;;;6.60;4.45;;;11.20;94.60;;;;;;5033679;28;20393;-82
2022/05/04 04:55:27;;;;;;;5.95;4.55;;;11.20;94.60;;;;;;5046914;28;20095;-84
2022/05/04 04:57:52;;;;;;;8.23;4.43;;;11.30;94.70;;;;;;5041429;28;20044;-83
2022/05/04 05:00:20;;;;;;;5.85;4.85;;;11.30;94.70;;;;;;5029506;28;20029;-84
2022/05/04 05:02:45;;;;;;;6.38;4.82;;;11.40;94.60;;;;;;5045607;28;20083;-83
2022/05/04 05:05:11;;;;;;;7.00;4.70;;;11.40;94.50;;;;;;5044489;28;20092;-82
2022/05/04 05:07:37;;;;;;;7.90;4.60;;;11.50;94.60;;;;;;5047478;28;20029;-83
2022/05/04 05:10:03;;;;;;;8.15;4.90;;;11.60;94.50;;;;;;5040629;28;20064;-83
2022/05/04 05:12:28;;;;;;;8.88;4.63;;;11.70;94.50;;;;;;5040981;28;20582;-82
2022/05/04 05:17:38;;;;;;;8.75;5.00;;;11.80;94.30;;;;;;5044199;28;20036;-84
2022/05/04 05:20:05;;;;;;;9.68;5.28;;;11.80;94.10;;;;;;5046376;28;20033;-82
2022/05/04 05:22:31;;;;;;;6.82;5.28;;;11.80;94.20;;;;;;5039784;28;20505;-81
2022/05/04 05:24:57;;;;;;;10.75;5.65;;;11.80;94.00;;;;;;5048916;28;20029;-82
2022/05/04 05:27:23;;;;;;;7.45;5.60;;;11.90;93.90;;;;;;5045449;28;20020;-82
2022/05/04 05:29:49;;;;;;;9.20;5.57;;;11.90;93.70;;;;;;5031114;28;20033;-82
2022/05/04 05:32:14;;;;;;;7.57;5.50;;;11.90;93.80;;;;;;5058942;28;20021;-82
2022/05/04 05:34:40;;;;;;;7.68;4.95;;;12.00;93.90;;;;;;5047514;28;20026;-82
2022/05/04 05:37:06;;;;;;;7.18;4.60;;;12.00;93.60;;;;;;5034315;28;20022;-81
2022/05/04 05:39:31;;;;;;;5.35;4.13;;;12.00;93.60;;;;;;5046513;28;20112;-81
2022/05/04 05:41:57;;;;;;;10.18;5.20;;;12.10;93.70;;;;;;5056239;28;20036;-83
2022/05/04 05:44:22;;;;;;;7.95;4.75;;;12.10;93.60;;;;;;5048285;28;20094;-80
2022/05/04 05:46:48;;;;;;;7.55;5.28;;;12.10;93.60;;;;;;5059873;28;20021;-81
2022/05/04 05:49:13;;;;;;;8.23;5.15;;;12.20;93.70;;;;;;5052302;28;20036;-81
2022/05/04 05:51:38;;;;;;;10.10;5.05;;;12.30;93.60;;;;;;5051850;28;20041;-80
2022/05/04 05:54:04;;;;;;;6.78;4.97;;;12.40;93.20;;;;;;5052477;28;20124;-81
2022/05/04 05:56:30;;;;;;;18.35;5.60;;;12.50;93.50;;;;;;5049543;28;20016;-81
2022/05/04 05:58:55;;;;;;;7.53;4.65;;;12.70;93.20;;;;;;5049596;28;20413;-80
2022/05/04 06:01:21;;;;;;;7.15;4.55;;;12.90;93.20;;;;;;5054814;28;20479;-81
2022/05/04 06:03:46;;;;;;;6.38;3.60;;;13.00;92.80;;;;;;5056105;28;20033;-78
2022/05/04 06:06:12;;;;;;;6.05;4.18;;;13.10;92.40;;;;;;5045658;28;20021;-80
2022/05/04 06:08:37;;;;;;;8.00;4.28;;;13.20;92.30;;;;;;5057799;28;20469;-80
2022/05/04 06:11:04;;;;;;;7.47;3.88;;;13.30;92.10;;;;;;5066192;28;20060;-80
2022/05/04 06:13:30;;;;;;;7.72;4.43;;;13.50;92.40;;;;;;5052780;28;20021;-80
2022/05/04 06:15:55;;;;;;;6.07;3.80;;;13.60;92.00;;;;;;5038003;28;20024;-79
2022/05/04 06:18:21;;;;;;;6.45;4.10;;;13.70;91.60;;;;;;5033357;28;20103;-80
2022/05/04 06:20:46;;;;;;;8.25;4.80;;;13.80;91.30;;;;;;5039647;28;20068;-80
2022/05/04 06:23:12;;;;;;;13.32;3.95;;;13.80;91.60;;;;;;5059106;28;20031;-81
2022/05/04 06:25:37;;;;;;;5.70;3.70;;;13.90;91.00;;;;;;5059122;28;20020;-81
2022/05/04 06:28:04;;;;;;;5.75;3.83;;;13.80;91.10;;;;;;5042178;28;20086;-80
2022/05/04 06:35:58;;;;;;;6.15;3.90;;;13.80;91.40;;;;;;5047213;28;20692;-80
2022/05/04 06:38:23;;;;;;;6.30;3.85;;;13.90;91.60;;;;;;5050853;28;20104;-82
2022/05/04 06:40:49;;;;;;;8.27;4.10;;;14.00;91.50;;;;;;5055527;28;20391;-80
2022/05/04 06:43:15;;;;;;;6.82;3.80;;;14.10;91.10;;;;;;5042394;28;20103;-80
2022/05/04 06:45:41;;;;;;;8.00;4.85;;;14.20;91.00;;;;;;5031248;28;20035;-82
2022/05/04 06:48:07;;;;;;;5.40;4.30;;;14.30;90.60;;;;;;5043325;28;20032;-83
2022/05/04 06:50:32;;;;;;;9.57;4.32;;;14.30;90.90;;;;;;5057257;28;20024;-82
2022/05/04 06:52:58;;;;;;;6.25;4.32;;;14.30;90.70;;;;;;5053568;28;20462;-82
2022/05/04 06:55:23;;;;;;;9.13;4.60;;;14.40;90.70;;;;;;5068939;28;20040;-82
2022/05/04 06:57:49;;;;;;;8.73;3.75;;;14.50;90.90;;;;;;5065338;28;20027;-82
2022/05/04 07:00:15;;;;;;;4.20;3.75;;;14.60;90.40;;;;;;5061699;28;20540;-82
2022/05/04 07:02:40;;;;;;;8.75;4.10;;;14.70;90.20;;;;;;5047602;28;20047;-80
2022/05/04 07:05:06;;;;;;;8.15;4.72;;;14.80;90.20;;;;;;5041866;28;20454;-79
2022/05/04 07:07:32;;;;;;;7.55;3.78;;;14.80;90.00;;;;;;5029438;28;20030;-81
2022/05/04 07:09:58;;;;;;;7.15;4.18;;;14.80;89.60;;;;;;5042989;28;20051;-85
2022/05/04 07:12:24;;;;;;;7.22;3.30;;;14.90;89.00;;;;;;5049054;28;20450;-81
2022/05/04 07:14:50;;;;;;;8.75;4.05;;;14.90;89.60;;;;;;5051676;28;20043;-83
2022/05/04 07:17:16;;;;;;;8.23;4.68;;;14.90;89.70;;;;;;5053987;28;20021;-83
2022/05/04 07:19:42;;;;;;;6.00;4.00;;;14.90;89.90;;;;;;5040403;28;20038;-81
2022/05/04 07:22:07;;;;;;;7.95;4.28;;;14.80;90.10;;;;;;5048473;28;20091;-81
2022/05/04 07:24:33;;;;;;;8.02;4.28;;;14.90;90.60;;;;;;5048034;28;20029;-81
2022/05/04 07:26:58;;;;;;;7.60;5.10;;;14.80;90.80;;;;;;5047018;28;20061;-82
2022/05/04 07:29:24;;;;;;;6.70;4.85;;;14.70;91.30;;;;;;5053696;28;20017;-81
2022/05/04 07:31:49;;;;;;;6.50;4.72;;;14.70;91.60;;;;;;5050069;28;20354;-81
2022/05/04 07:34:16;;;;;;;9.60;5.22;;;14.60;91.90;;;;;;5041207;28;20029;-81
2022/05/04 07:36:42;;;;;;;9.43;5.25;;;14.50;92.70;;;;;;5036607;28;20024;-82
2022/05/04 07:39:08;;;;;;;6.30;5.15;;;14.40;92.90;;;;;;5031374;28;20358;-81
2022/05/04 07:44:17;;;;;;;7.15;5.32;;;14.30;93.90;;;;;;5044530;28;20075;-81
2022/05/04 07:46:43;;;;;;;8.73;5.00;;;14.20;94.20;;;;;;5048717;28;20025;-81
2022/05/04 07:49:09;;;;;;;13.32;6.05;;;14.20;94.10;;;;;;5040303;28;20124;-82
2022/05/04 07:51:35;;;;;;;8.00;5.15;;;14.10;94.50;;;;;;5043064;28;20516;-83
2022/05/04 07:54:00;;;;;;;9.30;6.68;;;14.10;94.80;;;;;;5048940;28;20032;-81
2022/05/04 07:56:26;;;;;;;10.57;6.18;;;14.10;94.90;;;;;;5051772;28;20021;-81
2022/05/04 07:58:53;;;;;;;7.43;5.65;;;14.10;94.80;;;;;;5049607;28;20052;-82
2022/05/04 08:04:18;;;;;;;9.32;5.75;;;14.10;95.20;;;;;;5045879;28;20378;-84
2022/05/04 08:06:44;;;;;;;13.52;6.38;;;14.00;95.30;;;;;;5050584;28;20027;-81
2022/05/04 08:09:10;;;;;;;11.65;5.65;;;14.10;95.60;;;;;;5044720;28;20036;-81
2022/05/04 08:11:35;;;;;;;8.23;5.50;;;14.00;95.60;;;;;;5032246;28;20037;-80
2022/05/04 08:14:01;;;;;;;8.05;5.90;;;14.00;95.60;;;;;;5036334;28;20170;-82
2022/05/04 08:16:27;;;;;;;8.52;5.38;;;14.00;95.50;;;;;;5035958;28;20024;-81
2022/05/04 08:18:52;;;;;;;7.68;6.20;;;14.00;96.00;;;;;;5052666;28;20032;-81
2022/05/04 08:21:18;;;;;;;9.02;5.70;;;14.00;96.00;;;;;;5041942;28;20037;-85
2022/05/04 08:23:43;;;;;;;12.95;6.43;;;14.10;96.10;;;;;;5035506;28;20033;-81
2022/05/04 08:26:12;;;;;;;8.40;6.75;;;14.10;96.10;;;;;;5041194;28;20029;-85
2022/05/04 08:28:38;;;;;;;14.95;6.30;;;14.10;96.10;;;;;;5060752;28;20485;-81
2022/05/04 08:31:05;;;;;;;8.43;6.35;;;14.10;96.20;;;;;;5052150;28;20029;-81
2022/05/04 08:33:30;;;;;;;11.95;5.68;;;14.10;95.80;;;;;;5048019;28;20488;-83
2022/05/04 08:35:56;;;;;;;9.70;6.95;;;14.00;95.80;;;;;;5048984;28;20064;-83
2022/05/04 08:38:22;;;;;;;9.98;7.20;;;13.90;95.90;;;;;;5059369;28;20020;-81
2022/05/04 08:40:49;;;;;;;9.55;7.20;;;14.00;96.30;;;;;;5032580;28;20109;-85
2022/05/04 08:43:18;;;;;;;8.32;5.78;;;14.00;96.20;;;;;;5038843;28;20021;-82
2022/05/04 08:45:45;;;;;;;11.13;6.35;;;14.00;96.40;;;;;;5035978;28;20029;-81
2022/05/04 08:48:12;;;;;;;10.85;6.55;;;13.90;96.30;;;;;;5044105;28;20469;-80
2022/05/04 08:50:41;;;;;;;8.82;6.22;;;13.90;96.10;;;;;;5058499;28;20083;-84
2022/05/04 08:53:08;;;;;;;12.75;6.65;;;13.90;96.30;;;;;;5054719;28;20583;-79
2022/05/04 08:55:37;;;;;;;8.18;6.00;;;13.90;96.80;;;;;;5053085;28;20340;-80
2022/05/04 08:58:03;;;;;;;13.65;8.02;;;13.90;96.50;;;;;;5047378;28;20109;-79
2022/05/04 09:00:28;;;;;;;12.52;6.40;;;13.80;96.80;;;;;;5061246;28;20116;-80
2022/05/04 09:02:54;;;;;;;15.55;7.28;;;13.80;96.70;;;;;;5045348;28;20037;-81
2022/05/04 09:05:23;;;;;;;12.57;5.97;;;13.70;96.80;;;;;;5051035;28;20029;-80
2022/05/04 09:07:54;;;;;;;12.48;6.20;;;13.70;96.80;;;;;;5048918;28;20466;-79
2022/05/04 09:10:22;;;;;;;8.90;6.68;;;13.70;96.90;;;;;;5043574;28;20481;-84
2022/05/04 09:12:50;;;;;;;13.30;6.75;;;13.80;97.00;;;;;;5047059;28;20519;-80
2022/05/04 09:15:19;;;;;;;10.65;6.45;;;13.80;97.00;;;;;;5052970;28;20650;-82
2022/05/04 09:17:45;;;;;;;12.65;6.32;;;13.80;97.00;;;;;;5043756;28;20038;-80
2022/05/04 09:22:55;;;;;;;10.05;6.38;;;13.90;97.00;;;;;;5043203;28;20117;-80
2022/05/04 09:25:21;;;;;;;11.00;7.05;;;13.90;97.10;;;;;;5032290;28;20104;-80
2022/05/04 09:27:48;;;;;;;13.63;5.82;;;13.90;97.30;;;;;;5036286;28;20033;-80
2022/05/04 09:30:14;;;;;;;8.93;6.20;;;13.90;97.50;;;;;;5043003;28;20025;-80
2022/05/04 09:32:41;;;;;;;12.93;7.15;;;14.00;97.60;;;;;;5057596;28;20053;-79
2022/05/04 09:35:16;;;;;;;10.18;5.88;;;14.00;97.40;;;;;;5042917;28;20030;-80
2022/05/04 09:46:03;;;;;;;15.73;7.18;;;14.10;96.90;;;;;;5041978;28;20122;-81
2022/05/04 09:48:34;;;;;;;9.60;6.38;;;14.00;96.90;;;;;;5044967;28;20121;-80
2022/05/04 09:51:22;;;;;;;15.82;6.13;;;14.00;97.10;;;;;;5037016;28;20474;-80
2022/05/04 09:53:47;;;;;;;10.68;6.45;;;14.00;97.20;;;;;;5047762;28;20029;-82
2022/05/04 09:56:13;;;;;;;12.82;6.75;;;14.00;97.50;;;;;;5051203;28;20431;-82
2022/05/04 09:58:39;;;;;;;13.35;6.32;;;14.00;97.70;;;;;;5041301;28;20031;-79
2022/05/04 10:01:05;;;;;;;10.07;6.72;;;14.10;97.80;;;;;;5027935;28;20041;-80
2022/05/04 10:03:32;;;;;;;14.70;7.13;;;14.20;97.50;;;;;;5043250;28;20369;-80
2022/05/04 10:06:01;;;;;;;8.57;6.78;;;14.20;97.60;;;;;;5031332;28;20174;-81
2022/05/04 10:08:27;;;;;;;12.68;6.30;;;14.30;97.80;;;;;;5047253;28;20037;-80
2022/05/04 10:10:56;;;;;;;14.93;7.70;;;14.30;97.50;;;;;;5031841;28;20044;-81
2022/05/04 10:13:22;;;;;;;11.95;6.72;;;14.30;97.60;;;;;;5030158;28;20021;-80
2022/05/04 10:15:52;;;;;;;11.25;7.20;;;14.20;97.60;;;;;;5047415;28;20074;-81
2022/05/04 10:18:23;;;;;;;8.05;6.72;;;14.30;97.40;;;;;;5049743;28;20029;-82
2022/05/04 10:21:11;;;;;;;8.38;6.80;;;14.40;97.50;;;;;;5048810;28;20040;-80
2022/05/04 10:23:42;;;;;;;9.30;7.45;;;14.50;97.60;;;;;;5048390;28;20029;-81
2022/05/04 10:26:12;;;;;;;13.48;7.22;;;14.60;97.70;;;;;;5047815;28;20382;-80
2022/05/04 10:28:42;;;;;;;8.23;6.20;;;14.80;98.00;;;;;;5049394;28;20024;-81
2022/05/04 10:31:11;;;;;;;11.50;6.80;;;14.90;97.90;;;;;;5048801;28;20056;-80
2022/05/04 10:33:37;;;;;;;13.07;6.32;;;15.00;97.80;;;;;;5048534;28;20086;-79
2022/05/04 10:36:20;;;;;;;7.93;5.25;;;15.00;96.90;;;;;;5048657;28;20104;-82
2022/05/04 10:38:51;;;;;;;9.55;4.22;;;15.10;95.90;;;;;;5049356;28;20025;-80
2022/05/04 10:41:35;;;;;;;7.30;4.82;;;15.20;95.40;;;;;;5045483;28;20033;-79
2022/05/04 10:44:02;;;;;;;6.55;4.80;;;15.30;96.10;;;;;;5048309;28;20432;-81
2022/05/04 10:46:30;;;;;;;9.15;6.07;;;15.50;96.50;;;;;;5048957;28;20036;-84
2022/05/04 10:49:04;;;;;;;6.47;4.38;;;15.60;95.70;;;;;;5049522;28;20080;-84
2022/05/04 10:51:30;;;;;;;7.93;4.75;;;15.80;95.40;;;;;;5049230;28;20040;-81
2022/05/04 10:53:59;;;;;;;7.22;4.43;;;16.00;95.30;;;;;;5048122;28;20025;-83
2022/05/04 10:56:26;;;;;;;8.43;4.80;;;16.10;95.00;;;;;;5048835;28;20025;-81
2022/05/04 10:58:53;;;;;;;5.93;4.07;;;16.20;94.60;;;;;;5047459;28;20028;-82
2022/05/04 11:01:25;;;;;;;6.32;4.90;;;16.40;94.60;;;;;;5048746;28;20029;-83
2022/05/04 11:03:57;;;;;;;6.57;4.82;;;16.60;95.30;;;;;;5038475;28;20060;-82
2022/05/04 11:06:33;;;;;;;5.13;4.45;;;16.80;94.20;;;;;;5028013;28;20022;-83
2022/05/04 11:09:05;;;;;;;8.20;5.57;;;17.10;94.30;;;;;;5038625;28;20029;-84
2022/05/04 11:11:32;;;;;;;8.13;5.40;;;17.20;93.40;;;;;;5048326;28;20048;-84
2022/05/04 11:13:58;;;;;;;6.18;4.18;;;17.40;93.40;;;;;;5049754;28;20021;-83
2022/05/04 11:16:26;;;;;;;7.65;4.15;;;17.50;92.70;;;;;;5048405;28;20036;-84
2022/05/04 11:18:51;;;;;;;7.47;4.13;;;17.50;92.10;;;;;;5029055;28;20454;-81
2022/05/04 11:21:18;;;;;;;6.95;3.65;;;17.60;92.50;;;;;;5031782;28;20083;-82
2022/05/04 11:23:49;;;;;;;4.93;3.75;;;17.70;91.30;;;;;;5037081;28;20029;-83
2022/05/04 11:26:20;;;;;;;5.28;4.10;;;17.80;90.40;;;;;;5044430;28;20198;-84
2022/05/04 11:28:47;;;;;;;6.07;3.30;;;18.00;91.30;;;;;;5029251;28;20389;-84
2022/05/04 11:31:12;;;;;;;4.50;2.88;;;18.30;90.50;;;;;;5033926;28;20033;-82
2022/05/04 11:33:40;;;;;;;7.25;3.13;;;18.50;89.30;;;;;;5045908;28;20032;-83
2022/05/04 11:36:06;;;;;;;4.60;2.97;;;18.70;89.20;;;;;;5033478;28;20366;-83
2022/05/04 11:38:32;;;;;;;5.03;3.38;;;19.00;87.50;;;;;;5028852;28;20037;-82
2022/05/04 11:40:57;;;;;;;3.75;2.88;;;19.20;87.40;;;;;;5035993;28;20057;-82
2022/05/04 11:43:27;;;;;;;4.50;3.22;;;19.40;83.50;;;;;;5056667;28;20029;-81
2022/05/04 11:45:54;;;;;;;3.60;2.88;;;19.60;84.70;;;;;;5050630;28;20025;-81
2022/05/04 11:48:21;;;;;;;2.80;2.33;;;19.70;81.50;;;;;;5045653;28;20500;-82
2022/05/04 11:50:47;;;;;;;3.75;2.65;;;19.70;81.50;;;;;;5036082;28;20053;-81
2022/05/04 11:53:13;;;;;;;4.15;2.17;;;20.00;85.10;;;;;;5053424;28;20036;-82
2022/05/04 11:55:38;;;;;;;4.43;2.20;;;20.30;81.60;;;;;;5058407;28;20037;-84
2022/05/04 11:58:09;;;;;;;2.80;1.80;;;20.50;78.90;;;;;;5048748;28;20534;-83
2022/05/04 12:00:35;;;;;;;2.40;1.77;;;20.60;76.30;;;;;;5050476;28;20045;-82
2022/05/04 12:03:03;;;;;;;3.53;2.10;;;20.60;75.60;;;;;;5054639;28;20022;-83
2022/05/04 12:05:29;;;;;;;2.45;2.03;;;20.60;75.70;;;;;;5040919;28;20044;-83
2022/05/04 12:07:55;;;;;;;4.75;2.38;;;20.70;74.30;;;;;;5033341;28;20040;-84
2022/05/04 12:10:22;;;;;;;5.82;2.20;;;20.90;76.30;;;;;;5051853;28;20032;-83
2022/05/04 12:12:47;;;;;;;3.40;2.05;;;21.20;73.00;;;;;;5048847;28;20033;-82
2022/05/04 12:15:14;;;;;;;2.65;1.83;;;21.40;70.40;;;;;;5032329;28;20092;-82
2022/05/04 12:17:39;;;;;;;4.05;1.73;;;21.70;72.90;;;;;;5030380;28;20471;-84
2022/05/04 12:20:05;;;;;;;2.78;2.38;;;21.80;70.20;;;;;;5033963;28;20065;-85
2022/05/04 12:22:31;;;;;;;2.67;2.00;;;21.90;71.90;;;;;;5033964;28;20064;-85
2022/05/04 12:24:57;;;;;;;2.10;1.90;;;22.00;70.30;;;;;;5045319;28;20492;-83
2022/05/04 12:27:23;;;;;;;3.30;1.67;;;22.10;71.40;;;;;;5036293;28;20029;-84
2022/05/04 12:35:20;;;;;;;2.22;1.90;;;22.50;67.00;;;;;;5047023;28;20029;-84
2022/05/04 12:37:50;;;;;;;4.18;2.30;;;22.20;67.30;;;;;;5032074;28;20116;-84
2022/05/04 12:40:16;;;;;;;13.98;2.90;;;21.80;66.50;;;;;;5032741;28;20045;-83
2022/05/04 12:42:42;;;;;;;3.55;2.00;;;21.80;69.30;;;;;;5049289;28;20100;-84
2022/05/04 12:45:14;;;;;;;4.53;2.40;;;21.80;69.60;;;;;;5050963;28;20095;-84
2022/05/04 12:47:39;;;;;;;2.67;2.47;;;22.00;67.70;;;;;;5049821;28;20484;-84
2022/05/04 12:50:06;;;;;;;3.47;2.38;;;21.70;68.70;;;;;;5050860;28;20065;-83
2022/05/04 12:52:31;;;;;;;4.50;2.97;;;21.80;71.60;;;;;;5049193;28;20021;-84
2022/05/04 12:54:56;;;;;;;3.78;3.05;;;21.90;70.80;;;;;;5051300;28;20032;-82
2022/05/04 12:57:22;;;;;;;4.20;3.08;;;22.10;70.80;;;;;;5041552;28;20025;-85
2022/05/04 12:59:48;;;;;;;6.25;3.33;;;22.30;67.90;;;;;;5031387;28;20033;-83
2022/05/04 13:02:13;;;;;;;4.22;2.67;;;22.50;67.10;;;;;;5031246;28;20788;-84
2022/05/04 13:04:39;;;;;;;3.95;2.63;;;22.50;66.10;;;;;;5043961;28;20057;-83
2022/05/04 13:07:05;;;;;;;5.95;3.17;;;22.60;66.80;;;;;;5040430;28;20448;-87
2022/05/04 13:09:30;;;;;;;3.20;2.50;;;22.60;66.30;;;;;;5037759;28;20482;-83
2022/05/04 13:11:56;;;;;;;7.70;3.17;;;22.40;68.70;;;;;;5046139;28;20040;-84
2022/05/04 13:14:21;;;;;;;4.85;3.03;;;22.40;65.60;;;;;;5051558;28;20083;-85
2022/05/04 13:16:47;;;;;;;3.50;2.95;;;22.20;65.70;;;;;;5049283;28;20464;-84
2022/05/04 13:19:13;;;;;;;3.95;2.58;;;22.20;67.80;;;;;;5051216;28;20021;-83
2022/05/04 13:21:39;;;;;;;5.72;2.80;;;22.50;71.10;;;;;;5050591;28;20040;-85